Blue Ridge, Canada
Current Conditions -  °F | °C
As of 10:00 PM on Wednesday 26 Nov 2014 (Local Time) from CYZU Reporting Station
Broken Clouds Broken Clouds  
Wind Chill: 12°   Ceiling: 23000
Heat Index: 12°   Visibility: 15mi
Dew Point: 10°   Wind: 2mph
Humidity: 92%   Direction: 360°N
Pressure: 30.06"   Gusts: NA
Location:  54.12°N, 115.38°W
Report Text: CYZU 270500Z 36002KT 15SM FEW020 SCT120 BKN230 M11/M12 A3006 RMK SF2AS2CI3 LAST OBS/NEXT 271300Z SLP237
Loading
Personal Weather Stations






























Interactive Weather Map New forecast layout! Learn more

10-Day Weather Forecast

Advertisements
Track Severe Weather on mobile